Avon, South Dakota
Current Conditions -  °F | °C
As of 2:35 PM on Tuesday 25 Nov 2014 (Local Time) from KYKN Reporting Station
Clear Clear  
Wind Chill: 37°   Ceiling: Unl
Heat Index: 43°   Visibility: 10mi
Dew Point: 25°   Wind: 12mph
Humidity: 49%   Direction: 150°SSE
Pressure: 29.88"   Gusts: NA
Location:  43.01°N, 98.06°W
Report Text: KYKN 252035Z AUTO 15010KT 10SM CLR 06/M04 A2988 RMK AO1
Loading
Personal Weather Stations






























Interactive Weather Map New forecast layout! Learn more

10-Day Weather Forecast

Advertisements
Track Severe Weather on mobile